Time;durP1;ratioP1;P1;durP2;ratioP2;P2;SDS_P1;SDS_P2;PMS_P1;PMS_P2;Temp;Humidity;BMP_temperature;BMP_pressure;BME280_temperature;BME280_humidity;BME280_pressure;Samples;Min_cycle;Max_cycle;Signal;HPM_P1;HPM_P2
2021/12/07 00:01:06;;;;;;;3.30;2.10;;;;;;;-145.69;100.00;72357.66;5133410;27;20193;-76
2021/12/07 00:03:38;;;;;;;4.97;2.20;;;;;;;-145.69;100.00;72347.69;5134399;27;20581;-76
2021/12/07 00:06:05;;;;;;;3.93;1.90;;;;;;;-145.69;100.00;72333.75;5134585;27;20583;-76
2021/12/07 00:08:31;;;;;;;2.20;1.73;;;;;;;-145.69;100.00;72325.81;5134302;27;20201;-76
2021/12/07 00:10:59;;;;;;;2.70;2.00;;;;;;;-145.69;100.00;72321.81;5134547;27;20196;-76
2021/12/07 00:13:29;;;;;;;2.73;1.70;;;;;;;-145.69;100.00;72317.84;5134332;27;20199;-76
2021/12/07 00:15:56;;;;;;;5.17;1.87;;;;;;;-145.69;100.00;72311.88;5134436;27;20201;-76
2021/12/07 00:18:23;;;;;;;3.67;1.83;;;;;;;-145.69;100.00;72311.88;5134448;27;20228;-76
2021/12/07 00:20:50;;;;;;;3.73;1.97;;;;;;;-145.69;100.00;72307.88;5134127;27;20641;-76
2021/12/07 00:23:16;;;;;;;3.57;2.10;;;;;;;-145.69;100.00;72315.84;5134377;27;20215;-76
2021/12/07 00:25:43;;;;;;;3.37;2.40;;;;;;;-145.69;100.00;72319.81;5134062;27;20257;-75
2021/12/07 00:28:11;;;;;;;1.77;1.50;;;;;;;-145.69;100.00;72329.78;5134345;27;20213;-76
2021/12/07 00:30:38;;;;;;;2.60;1.80;;;;;;;-145.69;100.00;72341.72;5134146;27;20204;-76
2021/12/07 00:33:15;;;;;;;4.80;1.93;;;;;;;-145.69;100.00;72337.75;5134202;27;20204;-76
2021/12/07 00:35:43;;;;;;;2.47;1.80;;;;;;;-145.69;100.00;72345.69;5134080;27;20211;-75
2021/12/07 00:38:17;;;;;;;3.33;1.73;;;;;;;-145.69;100.00;72349.69;5133735;27;20220;-76
2021/12/07 00:40:45;;;;;;;3.07;2.00;;;;;;;-145.69;100.00;72353.66;5134172;28;20201;-76
2021/12/07 00:43:13;;;;;;;2.87;1.80;;;;;;;-145.69;100.00;72353.66;5134183;28;20193;-76
2021/12/07 00:45:43;;;;;;;3.90;2.00;;;;;;;-145.69;100.00;72343.72;5133920;28;20236;-76
2021/12/07 00:48:10;;;;;;;2.70;1.90;;;;;;;-145.69;100.00;72343.72;5133869;28;20659;-76
2021/12/07 00:50:38;;;;;;;2.40;1.90;;;;;;;-145.69;100.00;72337.75;5133774;27;20200;-76
2021/12/07 00:53:05;;;;;;;2.80;1.93;;;;;;;-145.69;100.00;72333.75;5133977;28;20674;-76
2021/12/07 00:55:37;;;;;;;3.17;1.80;;;;;;;-145.69;100.00;72337.75;5133994;28;20201;-76
2021/12/07 00:58:12;;;;;;;3.23;1.83;;;;;;;-145.69;100.00;72345.69;5134064;28;20239;-76
2021/12/07 01:00:41;;;;;;;4.70;2.10;;;;;;;-145.69;100.00;72341.72;5133843;28;20197;-76
2021/12/07 01:03:08;;;;;;;6.87;2.30;;;;;;;-145.69;100.00;72345.69;5133735;27;20255;-76
2021/12/07 01:05:35;;;;;;;2.40;1.67;;;;;;;-145.69;100.00;72341.72;5134093;28;20193;-76
2021/12/07 01:08:22;;;;;;;3.13;1.60;;;;;;;-145.69;100.00;72347.69;5133922;27;20201;-76
2021/12/07 01:24:43;;;;;;;1.77;1.40;;;;;;;-145.69;100.00;72327.78;5117130;28;20192;-76
2021/12/07 01:27:13;;;;;;;3.00;1.70;;;;;;;-145.69;100.00;72341.72;5129907;27;20196;-76
2021/12/07 01:29:42;;;;;;;1.80;1.40;;;;;;;-145.69;100.00;72333.75;5137519;27;20536;-75
2021/12/07 01:32:22;;;;;;;2.10;1.53;;;;;;;-145.69;100.00;72331.78;5137708;27;20209;-76
2021/12/07 01:35:25;;;;;;;2.63;1.50;;;;;;;-145.69;100.00;72329.78;5137701;27;20211;-76
2021/12/07 01:38:08;;;;;;;3.30;1.37;;;;;;;-145.69;100.00;72329.78;5137084;27;20624;-76
2021/12/07 01:40:45;;;;;;;1.30;1.20;;;;;;;-145.69;100.00;72333.75;5137394;27;20287;-76
2021/12/07 01:43:42;;;;;;;2.30;1.40;;;;;;;-145.69;100.00;72339.72;5137471;27;20196;-76
2021/12/07 02:00:14;;;;;;;1.27;1.00;;;;;;;-145.69;100.00;72286.00;5069225;28;20197;-76
2021/12/07 02:02:41;;;;;;;1.27;1.17;;;;;;;-145.69;100.00;72297.94;5089986;28;20305;-76
2021/12/07 02:05:09;;;;;;;1.00;0.90;;;;;;;-145.69;100.00;72305.91;5089966;28;20194;-76
2021/12/07 02:07:35;;;;;;;1.10;1.00;;;;;;;-145.69;100.00;72317.84;5090484;28;20202;-76
2021/12/07 02:10:08;;;;;;;1.43;1.10;;;;;;;-145.69;100.00;72325.81;5090519;28;20281;-76
2021/12/07 02:12:42;;;;;;;1.57;1.10;;;;;;;-145.69;100.00;72333.75;5090375;28;20202;-76
2021/12/07 02:15:10;;;;;;;2.43;1.30;;;;;;;-145.69;100.00;72317.84;5089853;28;20200;-76
2021/12/07 02:17:36;;;;;;;1.53;0.80;;;;;;;-145.69;100.00;72329.78;5090150;28;20194;-76
2021/12/07 02:20:04;;;;;;;2.90;1.10;;;;;;;-145.69;100.00;72331.78;5090357;28;20225;-75
2021/12/07 02:22:32;;;;;;;1.70;0.90;;;;;;;-145.69;100.00;72327.78;5090270;28;20205;-76
2021/12/07 02:24:59;;;;;;;1.10;1.00;;;;;;;-145.69;100.00;72307.88;5090199;28;20289;-75
2021/12/07 02:27:25;;;;;;;4.17;1.10;;;;;;;-145.69;100.00;72311.88;5089819;28;20209;-76
2021/12/07 02:29:52;;;;;;;0.90;0.90;;;;;;;-145.69;100.00;72301.91;5090094;28;20198;-75
2021/12/07 02:32:18;;;;;;;1.33;1.00;;;;;;;-145.69;100.00;72293.94;5089707;28;20244;-76
2021/12/07 02:34:54;;;;;;;1.07;0.97;;;;;;;-145.69;100.00;72289.97;5089806;28;20723;-75
2021/12/07 02:37:22;;;;;;;1.30;0.90;;;;;;;-145.69;100.00;72278.03;5089906;28;20226;-75
2021/12/07 02:39:50;;;;;;;1.00;1.00;;;;;;;-145.69;100.00;72287.97;5089662;28;20198;-76
2021/12/07 02:42:17;;;;;;;1.17;0.87;;;;;;;-145.69;100.00;72276.03;5089796;28;20195;-75
2021/12/07 02:44:44;;;;;;;2.97;1.43;;;;;;;-145.69;100.00;72289.97;5089641;28;20209;-75
2021/12/07 02:47:11;;;;;;;1.53;1.00;;;;;;;-145.69;100.00;72291.97;5089777;28;20205;-76
2021/12/07 02:49:38;;;;;;;0.80;0.80;;;;;;;-145.69;100.00;72301.91;5089535;28;20566;-76
2021/12/07 02:52:05;;;;;;;1.57;0.87;;;;;;;-145.69;100.00;72301.91;5089288;28;20198;-76
2021/12/07 02:54:33;;;;;;;1.07;0.87;;;;;;;-145.69;100.00;72301.91;5089267;28;20238;-76
2021/12/07 02:57:01;;;;;;;1.87;1.00;;;;;;;-145.69;100.00;72323.81;5089602;28;20202;-76
2021/12/07 02:59:29;;;;;;;1.03;0.90;;;;;;;-145.69;100.00;72339.72;5089286;28;20684;-76
2021/12/07 03:02:01;;;;;;;1.13;1.00;;;;;;;-145.69;100.00;72341.72;5089143;28;20240;-76
2021/12/07 03:04:33;;;;;;;1.10;0.90;;;;;;;-145.69;100.00;72353.66;5084799;28;20612;-75
2021/12/07 03:07:08;;;;;;;0.87;0.80;;;;;;;-145.69;100.00;72333.75;5075926;28;20282;-76
2021/12/07 03:10:00;;;;;;;1.63;1.00;;;;;;;-145.69;100.00;72339.72;5075738;28;20202;-76
2021/12/07 03:26:11;;;;;;;1.47;1.13;;;;;;;-145.69;100.00;72397.44;5057257;28;20895;-75
2021/12/07 03:28:41;;;;;;;1.00;0.80;;;;;;;-145.69;100.00;72385.50;5075109;28;20543;-75
2021/12/07 03:31:08;;;;;;;1.90;0.90;;;;;;;-145.69;100.00;72377.53;5075085;28;20657;-75
2021/12/07 03:33:36;;;;;;;1.20;1.00;;;;;;;-145.69;100.00;72383.53;5075059;28;20685;-75
2021/12/07 03:36:04;;;;;;;1.77;1.23;;;;;;;-145.69;100.00;72381.53;5075368;28;20558;-75
2021/12/07 03:38:31;;;;;;;3.10;1.23;;;;;;;-145.69;100.00;72391.47;5075077;28;20202;-75
2021/12/07 03:40:58;;;;;;;1.67;1.17;;;;;;;-145.69;100.00;72383.53;5075103;28;20237;-75
2021/12/07 03:43:24;;;;;;;2.37;1.27;;;;;;;-145.69;100.00;72383.53;5075319;28;20276;-75
2021/12/07 03:45:52;;;;;;;1.53;1.10;;;;;;;-145.69;100.00;72383.53;5075013;28;20649;-75
2021/12/07 03:48:19;;;;;;;3.00;1.30;;;;;;;-145.69;100.00;72381.53;5074962;28;20209;-75
2021/12/07 03:50:46;;;;;;;2.17;1.20;;;;;;;-145.69;100.00;72385.50;5074812;28;20245;-75
2021/12/07 03:53:14;;;;;;;1.20;1.10;;;;;;;-145.69;100.00;72391.47;5074718;28;20230;-75
2021/12/07 03:55:41;;;;;;;3.10;1.50;;;;;;;-145.69;100.00;72395.47;5074442;28;20205;-75
2021/12/07 03:58:08;;;;;;;3.37;1.60;;;;;;;-145.69;100.00;72399.44;5074358;28;20202;-75
2021/12/07 04:00:37;;;;;;;1.80;1.40;;;;;;;-145.69;100.00;72405.41;5074571;28;20683;-76
2021/12/07 04:03:09;;;;;;;3.40;1.30;;;;;;;-145.69;100.00;72403.41;5074477;28;20391;-75
2021/12/07 04:05:44;;;;;;;4.33;1.30;;;;;;;-145.69;100.00;72403.41;5074513;28;20225;-75
2021/12/07 04:08:11;;;;;;;2.87;1.50;;;;;;;-145.69;100.00;72413.38;5074459;28;20657;-75
2021/12/07 04:10:37;;;;;;;3.37;1.60;;;;;;;-145.69;100.00;72421.34;5074648;28;20611;-76
2021/12/07 04:13:04;;;;;;;6.43;1.70;;;;;;;-145.69;100.00;72443.22;5074527;28;20199;-75
2021/12/07 04:15:31;;;;;;;5.30;1.80;;;;;;;-145.69;100.00;72445.22;5074195;28;20252;-75
2021/12/07 04:17:57;;;;;;;4.40;2.10;;;;;;;-145.69;100.00;72453.19;5073729;28;20202;-75
2021/12/07 04:20:25;;;;;;;2.63;2.03;;;;;;;-145.69;100.00;72453.19;5074217;28;20210;-75
2021/12/07 04:22:52;;;;;;;3.53;2.27;;;;;;;-145.69;100.00;72449.19;5074531;28;20209;-75
2021/12/07 04:25:19;;;;;;;3.90;1.70;;;;;;;-145.69;100.00;72437.25;5074342;28;20207;-75
2021/12/07 04:27:46;;;;;;;3.10;1.70;;;;;;;-145.69;100.00;72441.25;5073899;28;20202;-75
2021/12/07 04:30:16;;;;;;;3.63;1.90;;;;;;;-145.69;100.00;72439.25;5074101;28;20202;-75
2021/12/07 04:32:44;;;;;;;2.17;1.50;;;;;;;-145.69;100.00;72437.25;5074109;28;20201;-75
2021/12/07 04:35:11;;;;;;;2.50;1.60;;;;;;;-145.69;100.00;72439.25;5073765;28;20276;-75
2021/12/07 04:37:41;;;;;;;3.70;2.03;;;;;;;-145.69;100.00;72447.22;5074251;28;20203;-75
2021/12/07 04:40:10;;;;;;;10.23;1.83;;;;;;;-145.69;100.00;72447.22;5073731;28;20252;-75
2021/12/07 04:42:36;;;;;;;3.03;1.60;;;;;;;-145.69;100.00;72453.19;5074111;28;20206;-75
2021/12/07 04:45:07;;;;;;;4.73;2.10;;;;;;;-145.69;100.00;72455.16;5073831;28;20198;-75
2021/12/07 04:47:42;;;;;;;3.43;1.73;;;;;;;-145.69;100.00;72453.19;5073828;28;20202;-75
2021/12/07 04:50:36;;;;;;;2.23;1.37;;;;;;;-145.69;100.00;72455.16;5073558;28;20214;-75
2021/12/07 04:58:33;;;;;;;5.23;1.73;;;;;;;-145.69;100.00;72437.25;5073628;28;20206;-75
2021/12/07 05:01:00;;;;;;;4.67;1.50;;;;;;;-145.69;100.00;72445.22;5073842;28;20207;-75
2021/12/07 05:03:29;;;;;;;4.30;1.33;;;;;;;-145.69;100.00;72437.25;5073471;28;20198;-75
2021/12/07 05:05:56;;;;;;;3.53;1.43;;;;;;;-145.69;100.00;72423.31;5073615;28;20195;-75
2021/12/07 05:08:35;;;;;;;3.67;1.73;;;;;;;-145.69;100.00;72435.28;5073541;28;20191;-75
2021/12/07 05:13:53;;;;;;;3.70;1.00;;;;;;;-145.69;100.00;72443.22;5044219;28;20277;-75
2021/12/07 05:16:33;;;;;;;2.17;1.20;;;;;;;-145.69;100.00;72443.22;5073003;28;20290;-75
2021/12/07 05:19:14;;;;;;;4.63;1.60;;;;;;;-145.69;100.00;72441.25;5073099;28;20206;-74
2021/12/07 05:24:27;;;;;;;5.67;1.27;;;;;;;-145.69;100.00;72453.19;5073236;28;20225;-74
2021/12/07 05:37:54;;;;;;;6.07;1.30;;;;;;;-145.69;100.00;72413.38;5072970;28;20206;-74
2021/12/07 05:40:24;;;;;;;2.30;1.07;;;;;;;-145.69;100.00;72421.34;5073110;28;20256;-75
2021/12/07 05:42:51;;;;;;;1.20;1.00;;;;;;;-145.69;100.00;72437.25;5072883;28;20210;-74
2021/12/07 05:45:20;;;;;;;3.77;1.10;;;;;;;-145.69;100.00;72421.34;5073062;28;20199;-75
2021/12/07 05:47:48;;;;;;;5.00;1.30;;;;;;;-145.69;100.00;72435.28;5072868;28;20202;-75
2021/12/07 05:50:17;;;;;;;4.47;1.33;;;;;;;-145.69;100.00;72443.22;5072811;28;20213;-74
2021/12/07 05:52:43;;;;;;;1.77;1.20;;;;;;;-145.69;100.00;72439.25;5072387;28;20284;-75
2021/12/07 05:55:10;;;;;;;4.53;1.17;;;;;;;-145.69;100.00;72435.28;5072990;28;20245;-75
2021/12/07 05:57:38;;;;;;;3.93;0.90;;;;;;;-145.69;100.00;72417.34;5073029;28;20199;-75
2021/12/07 06:00:08;;;;;;;3.40;1.13;;;;;;;-145.69;100.00;72417.34;5072511;28;20203;-75
2021/12/07 06:02:35;;;;;;;7.67;1.80;;;;;;;-145.69;100.00;72425.31;5072619;28;20225;-75
2021/12/07 06:05:02;;;;;;;5.33;1.90;;;;;;;-145.69;100.00;72411.38;5073030;28;20206;-75
2021/12/07 06:07:28;;;;;;;6.40;1.90;;;;;;;-145.69;100.00;72411.38;5072774;28;20203;-75
2021/12/07 06:09:54;;;;;;;8.37;1.50;;;;;;;-145.69;100.00;72425.31;5072813;28;20256;-75
2021/12/07 06:12:21;;;;;;;6.33;1.73;;;;;;;-145.69;100.00;72437.25;5072874;28;20203;-75
2021/12/07 06:14:49;;;;;;;3.53;1.50;;;;;;;-145.69;100.00;72431.28;5072306;28;20230;-75
2021/12/07 06:17:15;;;;;;;8.53;1.37;;;;;;;-145.69;100.00;72433.28;5072440;28;20654;-75
2021/12/07 06:19:42;;;;;;;4.50;1.77;;;;;;;-145.69;100.00;72441.25;5072672;28;20199;-75
2021/12/07 06:22:09;;;;;;;2.93;1.40;;;;;;;-145.69;100.00;72441.25;5072535;28;20588;-75
2021/12/07 06:24:35;;;;;;;5.50;1.63;;;;;;;-145.69;100.00;72439.25;5072676;28;20206;-75
2021/12/07 06:27:02;;;;;;;5.77;1.40;;;;;;;-145.69;100.00;72443.22;5072119;28;20229;-75
2021/12/07 06:29:28;;;;;;;3.07;1.13;;;;;;;-145.69;100.00;72427.31;5072411;28;20252;-75
2021/12/07 06:31:56;;;;;;;6.17;1.33;;;;;;;-145.69;100.00;72421.34;5072219;28;20272;-75
2021/12/07 06:34:23;;;;;;;4.73;1.23;;;;;;;-145.69;100.00;72425.31;5072516;28;20226;-75
2021/12/07 06:36:49;;;;;;;8.03;1.70;;;;;;;-145.69;100.00;72441.25;5072705;28;20248;-75
2021/12/07 06:39:16;;;;;;;6.13;1.80;;;;;;;-145.69;100.00;72433.28;5072282;28;20199;-75
2021/12/07 06:41:42;;;;;;;2.40;1.53;;;;;;;-145.69;100.00;72435.28;5076288;28;20195;-75
2021/12/07 06:44:09;;;;;;;9.70;1.67;;;;;;;-145.69;100.00;72435.28;5076036;28;20199;-75
2021/12/07 06:46:35;;;;;;;5.27;1.33;;;;;;;-145.69;100.00;72425.31;5076060;28;20256;-74
2021/12/07 06:49:04;;;;;;;9.23;1.47;;;;;;;-145.69;100.00;72439.25;5076069;28;20199;-75
2021/12/07 06:51:30;;;;;;;6.47;1.50;;;;;;;-145.69;100.00;72447.22;5075968;28;20194;-75
2021/12/07 06:53:57;;;;;;;2.53;1.20;;;;;;;-145.69;100.00;72451.19;5075838;28;20242;-74
2021/12/07 06:56:24;;;;;;;6.80;2.47;;;;;;;-145.69;100.00;72453.19;5076011;28;20199;-75
2021/12/07 06:58:50;;;;;;;6.30;1.63;;;;;;;-145.69;100.00;72451.19;5075771;28;20190;-75
2021/12/07 07:01:17;;;;;;;12.47;1.50;;;;;;;-145.69;100.00;72469.09;5075521;28;20653;-75
2021/12/07 07:03:44;;;;;;;4.70;1.30;;;;;;;-145.69;100.00;72473.09;5068665;28;20553;-75
2021/12/07 07:06:11;;;;;;;3.23;1.23;;;;;;;-145.69;100.00;72483.03;5075771;28;20256;-75
2021/12/07 07:08:38;;;;;;;5.07;1.20;;;;;;;-145.69;100.00;72494.97;5075744;28;20245;-75
2021/12/07 07:11:06;;;;;;;4.10;0.90;;;;;;;-145.69;100.00;72506.91;5075649;28;20225;-75
2021/12/07 07:13:33;;;;;;;5.07;1.30;;;;;;;-145.69;100.00;72508.91;5075666;28;20198;-74
2021/12/07 07:16:00;;;;;;;2.63;1.40;;;;;;;-145.69;100.00;72528.81;5075090;28;20554;-75
2021/12/07 07:18:27;;;;;;;5.27;1.30;;;;;;;-145.69;100.00;72540.75;5075624;28;20207;-74
2021/12/07 07:20:55;;;;;;;3.53;1.53;;;;;;;-145.69;100.00;72556.69;5075365;28;20195;-74
2021/12/07 07:23:23;;;;;;;5.73;1.53;;;;;;;-145.69;100.00;72552.69;5075437;28;20207;-74
2021/12/07 07:25:50;;;;;;;4.67;1.50;;;;;;;-145.69;100.00;72548.72;5075317;28;20207;-74
2021/12/07 07:28:16;;;;;;;4.10;1.30;;;;;;;-145.69;100.00;72558.66;5075025;28;20194;-75
2021/12/07 07:30:43;;;;;;;5.20;1.90;;;;;;;-145.69;100.00;72564.66;5075438;28;20252;-75
2021/12/07 07:33:09;;;;;;;9.07;1.80;;;;;;;-145.69;100.00;72560.66;5075331;28;20199;-75
2021/12/07 07:35:37;;;;;;;4.43;1.40;;;;;;;-145.69;100.00;72564.66;5075265;28;20230;-75
2021/12/07 07:38:04;;;;;;;4.00;1.37;;;;;;;-145.69;100.00;72556.69;5075323;28;20195;-75
2021/12/07 07:40:31;;;;;;;10.43;1.80;;;;;;;-145.69;100.00;72556.69;5074907;28;20570;-75
2021/12/07 07:42:58;;;;;;;6.03;1.70;;;;;;;-145.69;100.00;72550.72;5075086;28;20676;-76
2021/12/07 07:45:25;;;;;;;20.27;8.40;;;;;;;-145.69;100.00;72552.69;5074890;28;20688;-76
2021/12/07 07:47:52;;;;;;;4.90;1.63;;;;;;;-145.69;100.00;72556.69;5075161;28;20201;-75
2021/12/07 07:50:18;;;;;;;6.27;1.93;;;;;;;-145.69;100.00;72564.66;5074677;28;20202;-75
2021/12/07 07:52:45;;;;;;;3.40;1.50;;;;;;;-145.69;100.00;72570.63;5074983;28;20234;-75
2021/12/07 07:55:14;;;;;;;2.20;1.50;;;;;;;-145.69;100.00;72562.66;5074718;28;20235;-75
2021/12/07 07:57:42;;;;;;;5.27;1.50;;;;;;;-145.69;100.00;72556.69;5075109;28;20213;-75
2021/12/07 08:00:11;;;;;;;10.77;1.87;;;;;;;-145.69;100.00;72554.69;5074621;28;20592;-75
2021/12/07 08:02:38;;;;;;;4.40;1.63;;;;;;;-145.69;100.00;72548.72;5074797;28;20285;-75
2021/12/07 08:05:06;;;;;;;2.13;1.40;;;;;;;-145.69;100.00;72552.69;5074701;28;20252;-75
2021/12/07 08:07:32;;;;;;;11.90;1.83;;;;;;;-145.69;100.00;72544.75;5074467;28;20214;-75
2021/12/07 08:09:59;;;;;;;3.80;1.57;;;;;;;-145.69;100.00;72552.69;5074597;28;20206;-75
2021/12/07 08:12:25;;;;;;;4.83;1.77;;;;;;;-145.69;100.00;72544.75;5074442;28;20203;-75
2021/12/07 08:14:53;;;;;;;7.13;1.80;;;;;;;-145.69;100.00;72540.75;5074492;28;20284;-75
2021/12/07 08:17:19;;;;;;;7.77;1.67;;;;;;;-145.69;100.00;72536.78;5074582;28;20199;-75
2021/12/07 08:19:46;;;;;;;5.20;1.30;;;;;;;-145.69;100.00;72512.91;5074116;28;20247;-75
2021/12/07 08:22:12;;;;;;;3.03;1.60;;;;;;;-145.69;100.00;72512.91;5074223;28;20203;-75
2021/12/07 08:24:39;;;;;;;6.90;1.73;;;;;;;-145.69;100.00;72520.84;5074479;28;20622;-75
2021/12/07 08:27:06;;;;;;;7.80;1.97;;;;;;;-145.69;100.00;72510.91;5074514;28;20202;-76
2021/12/07 08:29:32;;;;;;;4.13;2.10;;;;;;;-145.69;100.00;72500.94;5073893;28;20233;-75
2021/12/07 08:32:00;;;;;;;8.33;2.70;;;;;;;-145.69;100.00;72504.94;5074157;28;20249;-75
2021/12/07 08:34:26;;;;;;;5.60;1.60;;;;;;;-145.69;100.00;72502.94;5073939;28;20616;-74
2021/12/07 08:36:53;;;;;;;5.77;1.87;;;;;;;-145.69;100.00;72483.03;5073778;28;20199;-75
2021/12/07 08:39:19;;;;;;;5.27;1.60;;;;;;;-145.69;100.00;72500.94;5074142;28;20275;-75
2021/12/07 08:41:46;;;;;;;6.80;1.90;;;;;;;-145.69;100.00;72508.91;5073849;28;20203;-74
2021/12/07 08:44:12;;;;;;;6.50;1.90;;;;;;;-145.69;100.00;72508.91;5073890;28;20263;-74
2021/12/07 08:46:40;;;;;;;7.70;1.77;;;;;;;-145.69;100.00;72504.94;5073883;28;20248;-75
2021/12/07 08:49:07;;;;;;;5.23;2.10;;;;;;;-145.69;100.00;72491.00;5073804;28;20202;-75
2021/12/07 08:51:38;;;;;;;5.73;1.90;;;;;;;-145.69;100.00;72473.09;5073672;28;20580;-74
2021/12/07 08:54:20;;;;;;;5.50;2.57;;;;;;;-145.69;100.00;72461.13;5073271;28;20230;-74
2021/12/07 08:59:40;;;;;;;2.80;1.60;;;;;;;-145.69;98.87;72449.19;5064427;28;20225;-75
2021/12/07 09:02:07;;;;;;;4.93;1.53;;;;;;;-145.69;98.93;72455.16;5073247;28;20259;-75
2021/12/07 09:04:35;;;;;;;4.77;1.43;;;;;;;-145.69;100.00;72471.09;5073028;28;20191;-75
2021/12/07 09:07:02;;;;;;;5.73;1.40;;;;;;;-145.69;100.00;72467.13;5072515;28;21640;-75
2021/12/07 09:09:29;;;;;;;2.17;1.30;;;;;;;-145.69;100.00;72465.13;5069256;28;20191;-75
2021/12/07 09:11:56;;;;;;;5.57;1.10;;;;;;;-145.69;100.00;72459.16;5072953;28;20209;-76
2021/12/07 09:14:23;;;;;;;5.03;1.53;;;;;;;-145.69;100.00;72455.16;5073176;28;20199;-75
2021/12/07 09:16:50;;;;;;;5.87;1.73;;;;;;;-145.69;100.00;72471.09;5073313;28;20205;-74
2021/12/07 09:19:17;;;;;;;3.97;1.10;;;;;;;-145.69;100.00;72457.16;5073058;28;20249;-74
2021/12/07 09:21:45;;;;;;;9.33;1.50;;;;;;;-145.69;99.25;72447.22;5073297;28;20202;-74
2021/12/07 09:24:11;;;;;;;3.63;1.30;;;;;;;-145.69;99.08;72449.19;5072973;28;20195;-75
2021/12/07 09:26:38;;;;;;;3.03;1.20;;;;;;;-145.69;99.31;72453.19;5073537;28;20228;-75
2021/12/07 09:29:07;;;;;;;6.73;1.40;;;;;;;-145.69;98.37;72445.22;5072977;28;20336;-75
2021/12/07 09:31:37;;;;;;;7.70;1.30;;;;;;;-145.69;98.57;72459.16;5073399;28;20205;-75
2021/12/07 09:34:06;;;;;;;3.27;1.27;;;;;;;-145.69;98.55;72451.19;5066402;28;20730;-75
2021/12/07 09:36:33;;;;;;;5.23;1.37;;;;;;;-145.69;97.83;72425.31;5073070;28;20226;-75
2021/12/07 09:39:02;;;;;;;5.00;1.20;;;;;;;-145.69;95.82;72429.28;5063567;28;20230;-74
2021/12/07 09:41:28;;;;;;;6.67;1.40;;;;;;;-145.69;96.25;72409.38;5059741;28;20618;-75
2021/12/07 09:43:55;;;;;;;7.93;1.77;;;;;;;-145.69;94.87;72401.44;5053123;28;20206;-75
2021/12/07 09:46:22;;;;;;;5.43;1.60;;;;;;;-145.69;93.58;72405.41;5052139;28;20298;-75
2021/12/07 09:48:49;;;;;;;4.63;1.33;;;;;;;-145.69;94.78;72417.34;5057910;28;20202;-74
2021/12/07 09:51:19;;;;;;;7.87;1.63;;;;;;;-145.69;97.45;72441.25;5072885;28;20212;-74
2021/12/07 09:53:47;;;;;;;7.73;1.30;;;;;;;-145.69;94.37;72439.25;5072464;28;20239;-75
2021/12/07 09:56:15;;;;;;;1.30;1.13;;;;;;;-145.69;94.04;72441.25;5072937;28;20230;-75
2021/12/07 09:58:43;;;;;;;6.13;1.50;;;;;;;-145.69;94.86;72439.25;5072677;28;20203;-75
2021/12/07 10:01:10;;;;;;;5.50;1.13;;;;;;;-145.69;93.51;72417.34;5072985;28;20230;-75
2021/12/07 10:03:38;;;;;;;13.13;1.47;;;;;;;-145.69;93.28;72409.38;5072546;28;20233;-75
2021/12/07 10:06:05;;;;;;;4.57;1.40;;;;;;;-145.69;94.14;72383.53;5072640;28;20245;-75
2021/12/07 10:08:32;;;;;;;1.83;1.10;;;;;;;-145.69;90.89;72387.50;5072461;28;20213;-74
2021/12/07 10:11:00;;;;;;;6.03;1.43;;;;;;;-145.69;93.25;72407.41;5072526;28;20252;-74
2021/12/07 10:13:30;;;;;;;8.33;1.33;;;;;;;-145.69;94.21;72403.41;5072727;28;20248;-74
2021/12/07 10:16:00;;;;;;;5.90;1.37;;;;;;;-145.69;92.61;72401.44;5075545;28;20719;-75
2021/12/07 10:18:28;;;;;;;3.27;1.40;;;;;;;-145.69;94.79;72399.44;5076715;28;20195;-75
2021/12/07 10:20:58;;;;;;;5.67;1.20;;;;;;;-145.69;94.37;72393.47;5076564;28;20400;-75
2021/12/07 10:23:29;;;;;;;9.07;1.57;;;;;;;-145.69;95.05;72389.50;5056851;28;20199;-74
2021/12/07 10:26:04;;;;;;;4.00;1.50;;;;;;;-145.69;93.12;72383.53;5056514;28;20214;-74
2021/12/07 10:28:36;;;;;;;4.27;1.17;;;;;;;-145.69;93.40;72389.50;5056553;28;20206;-75
2021/12/07 10:31:16;;;;;;;4.70;1.30;;;;;;;-145.69;93.46;72381.53;5061805;28;20650;-74
2021/12/07 10:33:45;;;;;;;8.63;1.23;;;;;;;-145.69;93.11;72369.59;5076308;28;20203;-75
2021/12/07 10:36:15;;;;;;;8.67;1.43;;;;;;;-145.69;91.08;72391.47;5076106;28;20231;-74
2021/12/07 10:38:46;;;;;;;2.80;1.27;;;;;;;-145.69;90.05;72393.47;5075719;28;20241;-74
2021/12/07 10:41:16;;;;;;;3.87;1.23;;;;;;;-145.69;91.73;72381.53;5076287;28;20206;-74
2021/12/07 10:43:47;;;;;;;5.43;1.33;;;;;;;-145.69;91.89;72375.56;5075877;28;20633;-75
2021/12/07 10:46:40;;;;;;;8.20;1.93;;;;;;;-145.69;90.08;72373.56;5056274;28;20257;-75
2021/12/07 10:49:19;;;;;;;6.27;1.60;;;;;;;-145.69;91.38;72367.59;5056149;28;20204;-76
2021/12/07 10:52:16;;;;;;;4.03;1.37;;;;;;;-145.69;89.41;72353.66;5056264;28;20610;-75
2021/12/07 10:54:59;;;;;;;5.00;1.50;;;;;;;-145.69;88.46;72345.69;5056137;28;20332;-75
2021/12/07 10:57:29;;;;;;;6.60;1.10;;;;;;;-145.69;90.96;72337.75;5054825;28;20210;-74
2021/12/07 11:00:09;;;;;;;3.00;1.37;;;;;;;-145.69;85.70;72341.72;5073040;28;20201;-74
2021/12/07 11:02:37;;;;;;;2.73;1.10;;;;;;;-145.69;86.35;72347.69;5075719;28;20202;-74
2021/12/07 11:05:09;;;;;;;4.90;1.10;;;;;;;-145.69;88.71;72345.69;5074027;28;20206;-75
2021/12/07 11:07:37;;;;;;;5.80;1.30;;;;;;;-145.69;89.82;72329.78;5055819;28;20195;-74
2021/12/07 11:10:10;;;;;;;4.87;1.33;;;;;;;-145.69;87.32;72321.81;5055323;28;20675;-75
2021/12/07 11:12:48;;;;;;;5.83;1.10;;;;;;;-145.69;91.23;72323.81;5059250;28;20282;-75
2021/12/07 11:15:24;;;;;;;7.67;1.50;;;;;;;-145.69;89.67;72303.91;5075307;28;20397;-74
2021/12/07 11:17:53;;;;;;;1.70;1.17;;;;;;;-145.69;85.44;72297.94;5075539;28;20202;-74
2021/12/07 11:20:20;;;;;;;5.93;1.23;;;;;;;-145.69;88.38;72284.00;5075303;28;20198;-75
2021/12/07 11:22:49;;;;;;;4.27;1.30;;;;;;;-145.69;87.33;72268.06;5075442;28;20221;-74
2021/12/07 11:25:42;;;;;;;7.13;1.60;;;;;;;-145.69;86.51;72260.13;5075005;28;20619;-74
2021/12/07 11:31:13;;;;;;;5.47;1.33;;;;;;;-145.69;83.11;72224.28;5075471;28;20329;-74
2021/12/07 11:33:39;;;;;;;5.87;1.50;;;;;;;-145.69;84.69;72248.19;5074767;28;20248;-75
2021/12/07 11:36:18;;;;;;;1.93;1.20;;;;;;;-145.69;82.55;72260.13;5075135;28;20280;-76
2021/12/07 11:38:45;;;;;;;5.40;1.23;;;;;;;-145.69;85.41;72272.06;5075172;28;20653;-75
2021/12/07 11:41:18;;;;;;;3.70;1.37;;;;;;;-145.69;83.25;72272.06;5075004;28;20199;-76
2021/12/07 11:43:54;;;;;;;7.07;1.67;;;;;;;-145.69;86.73;72254.16;5075265;28;20206;-76
2021/12/07 11:46:23;;;;;;;6.00;2.03;;;;;;;-145.69;83.72;72254.16;5075034;28;20206;-76
2021/12/07 11:48:50;;;;;;;6.67;1.37;;;;;;;-145.69;83.33;72258.13;5075346;28;20202;-75
2021/12/07 11:51:16;;;;;;;3.70;1.20;;;;;;;-145.69;85.12;72268.06;5075054;28;20203;-76
2021/12/07 11:53:43;;;;;;;13.70;4.53;;;;;;;-145.69;86.08;72297.94;5074852;28;20230;-76
2021/12/07 11:56:10;;;;;;;6.00;1.53;;;;;;;-145.69;86.00;72313.84;5074488;28;20310;-76
2021/12/07 11:58:36;;;;;;;10.80;2.43;;;;;;;-145.69;86.36;72325.81;5074774;28;20718;-76
2021/12/07 12:01:06;;;;;;;7.90;3.10;;;;;;;-145.69;87.61;72333.75;5074574;28;20199;-76
2021/12/07 12:03:36;;;;;;;6.37;1.57;;;;;;;-145.69;85.46;72333.75;5074897;28;20202;-76
2021/12/07 12:06:03;;;;;;;5.47;1.47;;;;;;;-145.69;85.83;72327.78;5074801;28;20195;-76
2021/12/07 12:08:30;;;;;;;3.70;1.27;;;;;;;-145.69;84.56;72303.91;5074310;28;20281;-76
2021/12/07 12:11:08;;;;;;;5.80;1.10;;;;;;;-145.69;86.54;72287.97;5074547;28;20209;-76
2021/12/07 12:13:46;;;;;;;4.30;1.57;;;;;;;-145.69;85.51;72258.13;5074259;28;20206;-76
2021/12/07 12:16:22;;;;;;;9.37;1.43;;;;;;;-145.69;84.46;72230.25;5074486;28;20317;-75
2021/12/07 12:18:59;;;;;;;4.17;1.60;;;;;;;-145.69;84.96;72210.38;5074166;28;20673;-76
2021/12/07 12:21:35;;;;;;;4.67;1.13;;;;;;;-145.69;82.26;72198.41;5054474;28;20233;-76
2021/12/07 12:24:14;;;;;;;8.53;1.57;;;;;;;-145.69;83.51;72172.53;5054254;28;20298;-76
2021/12/07 12:26:44;;;;;;;4.10;1.30;;;;;;;-145.69;80.07;72146.69;5054134;28;20205;-76
2021/12/07 12:29:23;;;;;;;9.57;2.83;;;;;;;-145.69;80.08;72138.72;5054208;28;20199;-76
2021/12/07 12:31:52;;;;;;;4.37;2.30;;;;;;;-145.69;80.52;72140.69;5054295;28;20203;-75